Time;durP1;ratioP1;P1;durP2;ratioP2;P2;SDS_P1;SDS_P2;PMS_P1;PMS_P2;Temp;Humidity;BMP_temperature;BMP_pressure;BME280_temperature;BME280_humidity;BME280_pressure;Samples;Min_cycle;Max_cycle;Signal;HPM_P1;HPM_P2
2022/07/09 00:01:57;;;;;;;9.45;4.93;;;;;;;20.14;54.44;99904.75;5031285;28;20295;-52
2022/07/09 00:04:23;;;;;;;9.00;5.45;;;;;;;20.16;54.25;99907.31;5031002;28;20036;-51
2022/07/09 00:06:48;;;;;;;9.50;4.72;;;;;;;20.14;55.07;99907.47;5029176;28;20045;-53
2022/07/09 00:09:14;;;;;;;9.85;5.03;;;;;;;20.13;54.45;99903.06;5031131;28;20429;-51
2022/07/09 00:11:39;;;;;;;8.57;4.65;;;;;;;20.10;55.42;99903.44;5031023;28;20041;-52
2022/07/09 00:14:05;;;;;;;9.73;4.70;;;;;;;20.07;55.35;99915.53;5030844;28;20036;-54
2022/07/09 00:16:30;;;;;;;11.35;5.05;;;;;;;20.05;55.74;99912.16;5030832;28;20481;-51
2022/07/09 00:18:56;;;;;;;7.35;4.80;;;;;;;20.00;56.05;99903.72;5029511;28;20030;-51
2022/07/09 00:21:21;;;;;;;10.90;5.78;;;;;;;19.98;55.49;99905.78;5030266;28;20393;-54
2022/07/09 00:23:46;;;;;;;10.73;5.07;;;;;;;19.95;55.68;99898.00;5030606;28;20048;-55
2022/07/09 00:26:12;;;;;;;9.00;5.65;;;;;;;19.93;55.81;99898.16;5030568;28;20045;-56
2022/07/09 00:28:37;;;;;;;10.63;5.68;;;;;;;19.93;55.43;99910.91;5031178;28;20026;-50
2022/07/09 00:31:03;;;;;;;10.20;5.25;;;;;;;19.89;56.25;99906.81;5031249;28;20440;-50
2022/07/09 00:33:29;;;;;;;11.05;4.95;;;;;;;19.86;56.70;99905.34;5030819;28;20089;-56
2022/07/09 00:35:54;;;;;;;10.63;5.35;;;;;;;19.83;56.33;99896.69;5030687;28;20060;-51
2022/07/09 00:38:20;;;;;;;14.95;5.82;;;;;;;19.84;56.33;99903.81;5030690;28;20415;-53
2022/07/09 00:40:45;;;;;;;14.27;5.60;;;;;;;19.82;56.15;99900.44;5030460;28;20120;-51
2022/07/09 00:43:21;;;;;;;13.90;5.88;;;;;;;19.92;56.62;99906.50;5030115;28;20032;-52
2022/07/09 00:45:47;;;;;;;7.97;5.38;;;;;;;19.78;56.16;99902.69;5030805;28;20493;-53
2022/07/09 00:48:14;;;;;;;12.48;6.07;;;;;;;19.81;56.42;99899.59;5029773;28;20040;-53
2022/07/09 00:50:41;;;;;;;12.77;6.03;;;;;;;19.80;57.08;99906.06;5030923;28;20110;-54
2022/07/09 00:53:10;;;;;;;15.98;5.72;;;;;;;19.76;57.30;99910.16;5030775;28;20068;-52
2022/07/09 00:55:38;;;;;;;13.48;5.82;;;;;;;19.72;57.22;99906.97;5030626;28;20037;-51
2022/07/09 00:58:03;;;;;;;12.68;5.60;;;;;;;19.65;57.43;99904.13;5030543;28;20029;-51
2022/07/09 01:00:29;;;;;;;12.23;5.28;;;;;;;19.71;57.21;99907.16;5030330;28;20025;-50
2022/07/09 01:02:56;;;;;;;16.20;5.75;;;;;;;19.69;57.32;99907.34;5030545;28;20529;-52
2022/07/09 01:05:22;;;;;;;9.60;5.07;;;;;;;19.69;57.33;99909.19;5030499;28;20052;-51
2022/07/09 01:07:47;;;;;;;9.93;5.68;;;;;;;19.68;57.47;99904.78;5030400;28;20030;-53
2022/07/09 01:10:13;;;;;;;11.55;5.43;;;;;;;19.67;57.95;99905.81;5030545;28;20041;-57
2022/07/09 01:12:39;;;;;;;11.18;5.97;;;;;;;19.67;58.14;99908.53;5030690;28;20029;-53
2022/07/09 01:15:06;;;;;;;9.85;5.95;;;;;;;19.69;57.91;99918.22;5030903;28;20109;-50
2022/07/09 01:17:42;;;;;;;16.25;6.00;;;;;;;19.78;57.92;99913.56;5030557;28;20058;-54
2022/07/09 01:20:08;;;;;;;11.00;5.87;;;;;;;19.73;58.03;99910.53;5030518;28;20052;-55
2022/07/09 01:22:35;;;;;;;11.05;6.00;;;;;;;19.65;57.85;99895.97;5030228;28;20040;-50
2022/07/09 01:25:09;;;;;;;10.63;6.40;;;;;;;19.80;57.41;99906.06;5032389;28;20022;-53
2022/07/09 01:27:36;;;;;;;15.27;7.03;;;;;;;19.77;57.89;99906.41;5033950;28;20116;-54
2022/07/09 01:30:04;;;;;;;14.93;7.10;;;;;;;19.80;57.88;99914.22;5034180;28;20030;-49
2022/07/09 01:32:29;;;;;;;15.88;7.25;;;;;;;19.81;57.95;99918.63;5033953;28;20133;-48
2022/07/09 01:34:55;;;;;;;18.33;8.85;;;;;;;19.90;57.59;99912.09;5034062;28;20112;-49
2022/07/09 01:37:20;;;;;;;16.00;8.10;;;;;;;19.94;58.04;99910.72;5033154;28;20057;-52
2022/07/09 01:39:52;;;;;;;13.38;8.27;;;;;;;20.00;57.33;99905.56;5033870;28;20033;-54
2022/07/09 01:42:20;;;;;;;23.67;8.90;;;;;;;20.03;57.31;99902.50;5033445;28;20025;-52
2022/07/09 01:44:48;;;;;;;20.92;9.57;;;;;;;20.24;56.72;99912.66;5032477;28;20076;-52
2022/07/09 01:47:16;;;;;;;15.38;8.77;;;;;;;20.25;57.17;99905.34;5033790;28;20037;-57
2022/07/09 01:49:42;;;;;;;17.63;9.20;;;;;;;20.35;56.51;99906.75;5033929;28;20107;-50
2022/07/09 01:52:08;;;;;;;15.75;8.50;;;;;;;20.39;56.08;99906.41;5033420;28;20462;-56
2022/07/09 01:54:34;;;;;;;21.60;9.38;;;;;;;20.43;56.63;99888.69;5032942;28;20204;-54
2022/07/09 01:56:59;;;;;;;16.23;8.88;;;;;;;20.50;56.69;99895.06;5033522;28;20476;-52
2022/07/09 01:59:25;;;;;;;17.10;8.38;;;;;;;20.52;56.78;99892.97;5032166;28;20045;-54
2022/07/09 02:01:50;;;;;;;19.88;8.98;;;;;;;20.54;56.83;99896.34;5033345;28;20210;-53
2022/07/09 02:04:16;;;;;;;17.45;9.60;;;;;;;20.62;56.56;99903.59;5033288;28;20053;-51
2022/07/09 02:06:41;;;;;;;17.60;9.13;;;;;;;20.68;56.97;99894.66;5033841;28;20030;-51
2022/07/09 02:09:07;;;;;;;16.35;9.50;;;;;;;20.69;57.28;99890.91;5033311;28;20029;-52
2022/07/09 02:11:32;;;;;;;18.60;8.88;;;;;;;20.78;56.38;99895.22;5032902;28;20052;-52
2022/07/09 02:13:58;;;;;;;16.77;8.27;;;;;;;20.84;56.10;99901.81;5033047;28;20060;-50
2022/07/09 02:16:24;;;;;;;17.75;9.90;;;;;;;20.91;56.39;99907.34;5032834;28;20057;-52
2022/07/09 02:18:50;;;;;;;19.02;9.18;;;;;;;21.03;55.86;99903.09;5032638;28;20108;-52
2022/07/09 02:21:16;;;;;;;14.02;9.02;;;;;;;21.17;55.12;99903.25;5033336;28;20025;-59
2022/07/09 02:23:41;;;;;;;19.15;9.80;;;;;;;21.29;54.80;99900.88;5033020;28;20116;-53
2022/07/09 02:26:07;;;;;;;23.75;9.25;;;;;;;21.36;54.46;99894.47;5032912;28;20025;-54
2022/07/09 02:28:32;;;;;;;17.48;9.63;;;;;;;21.33;54.35;99870.34;5032740;28;20030;-52
2022/07/09 02:30:58;;;;;;;18.85;8.82;;;;;;;21.68;54.85;99907.81;5032573;28;20032;-54
2022/07/09 02:33:23;;;;;;;18.65;9.02;;;;;;;21.84;54.04;99903.97;5032941;28;20465;-53
2022/07/09 02:35:49;;;;;;;15.75;8.95;;;;;;;21.97;52.94;99900.50;5031509;28;20060;-55
2022/07/09 02:38:14;;;;;;;18.00;8.68;;;;;;;22.26;52.69;99909.53;5032912;28;20478;-54
2022/07/09 02:40:40;;;;;;;17.17;9.35;;;;;;;22.57;51.56;99907.47;5032429;28;20037;-53
2022/07/09 02:43:05;;;;;;;11.27;8.98;;;;;;;22.84;49.86;99913.06;5032108;28;20347;-50
2022/07/09 02:45:31;;;;;;;18.83;9.52;;;;;;;23.02;49.81;99913.34;5031385;28;20369;-55
2022/07/09 02:47:56;;;;;;;12.70;9.38;;;;;;;23.16;48.70;99914.25;5032714;28;20026;-53
2022/07/09 02:50:22;;;;;;;15.60;8.80;;;;;;;23.28;49.18;99919.16;5032488;28;20038;-53
2022/07/09 02:52:48;;;;;;;18.92;9.45;;;;;;;23.29;48.13;99915.38;5032296;28;20033;-58
2022/07/09 02:55:13;;;;;;;22.05;9.15;;;;;;;23.09;49.15;99897.00;5032454;28;20486;-55
2022/07/09 02:57:39;;;;;;;18.83;8.82;;;;;;;23.06;49.40;99924.72;5030818;28;20041;-54
2022/07/09 03:00:05;;;;;;;16.38;9.40;;;;;;;22.94;48.98;99924.47;5031998;28;20104;-54
2022/07/09 03:02:31;;;;;;;16.33;8.98;;;;;;;22.92;49.54;99918.38;5047555;28;20029;-53
2022/07/09 03:04:57;;;;;;;20.60;9.77;;;;;;;22.89;49.38;99918.75;5031289;28;20030;-54
2022/07/09 03:07:23;;;;;;;15.25;8.77;;;;;;;22.93;49.88;99920.03;5031805;28;20037;-50
2022/07/09 03:09:48;;;;;;;19.05;9.18;;;;;;;23.09;49.37;99925.13;5032263;28;20029;-56
2022/07/09 03:12:14;;;;;;;19.30;10.52;;;;;;;23.35;48.58;99923.56;5031836;28;20028;-50
2022/07/09 03:14:39;;;;;;;18.98;9.52;;;;;;;23.54;48.20;99901.97;5032359;28;20397;-54
2022/07/09 03:17:05;;;;;;;18.08;9.73;;;;;;;23.99;46.85;99925.16;5047218;28;20120;-49
2022/07/09 03:19:30;;;;;;;19.83;10.10;;;;;;;24.18;46.53;99918.00;5031331;28;20032;-53
2022/07/09 03:21:56;;;;;;;21.95;10.18;;;;;;;24.33;45.88;99920.53;5031976;28;20396;-50
2022/07/09 03:24:21;;;;;;;22.75;10.73;;;;;;;24.41;45.59;99928.53;5032278;28;20103;-50
2022/07/09 03:26:47;;;;;;;20.30;11.02;;;;;;;24.51;45.60;99915.22;5031778;28;20033;-50
2022/07/09 03:29:12;;;;;;;18.23;9.63;;;;;;;24.74;44.92;99910.34;5031746;28;20036;-49
2022/07/09 03:31:38;;;;;;;15.82;10.15;;;;;;;25.04;44.23;99887.94;5046571;28;20515;-52
2022/07/09 03:34:05;;;;;;;16.38;9.90;;;;;;;25.41;43.54;99901.00;5031626;28;20124;-55
2022/07/09 03:36:31;;;;;;;17.02;10.30;;;;;;;25.41;42.88;99885.38;5031752;28;20053;-52
2022/07/09 03:38:57;;;;;;;17.65;10.30;;;;;;;25.77;42.38;99913.22;5031613;28;20029;-50
2022/07/09 03:41:22;;;;;;;16.10;10.18;;;;;;;25.84;41.75;99883.88;5031461;28;20104;-53
2022/07/09 03:43:48;;;;;;;18.13;10.13;;;;;;;26.32;40.89;99915.31;5031617;28;20421;-54
2022/07/09 03:46:13;;;;;;;17.33;10.25;;;;;;;26.60;39.98;99913.97;5031309;28;20109;-53
2022/07/09 03:48:39;;;;;;;20.17;10.48;;;;;;;26.73;39.15;99893.75;5031204;28;20523;-52
2022/07/09 03:51:04;;;;;;;18.33;10.30;;;;;;;26.69;39.11;99880.75;5031115;28;20044;-53
2022/07/09 03:53:30;;;;;;;14.30;9.73;;;;;;;26.49;38.98;99882.63;5031117;28;20041;-52
2022/07/09 03:55:55;;;;;;;16.27;10.77;;;;;;;26.09;39.67;99844.59;5030548;28;20083;-52
2022/07/09 03:58:21;;;;;;;18.58;12.23;;;;;;;25.85;39.89;99847.16;5031418;28;20116;-57
2022/07/09 04:00:46;;;;;;;19.67;11.30;;;;;;;25.75;40.32;99871.47;5031478;28;20068;-55
2022/07/09 04:03:12;;;;;;;23.67;12.55;;;;;;;25.54;40.91;99859.81;5046236;28;20187;-54
2022/07/09 04:05:37;;;;;;;19.73;11.75;;;;;;;25.33;41.13;99870.06;5031224;28;20110;-55
2022/07/09 04:08:03;;;;;;;17.00;11.98;;;;;;;25.06;42.36;99891.28;5031006;28;20029;-54
2022/07/09 04:10:28;;;;;;;13.07;10.80;;;;;;;24.82;42.53;99868.22;5030605;28;20482;-50
2022/07/09 04:12:55;;;;;;;16.88;11.20;;;;;;;25.14;42.34;99899.25;5030988;28;20057;-53
2022/07/09 04:15:20;;;;;;;17.20;10.13;;;;;;;25.63;40.64;99885.06;5031376;28;20060;-55
2022/07/09 04:17:46;;;;;;;17.25;10.30;;;;;;;26.06;40.52;99887.03;5030345;28;20477;-53
2022/07/09 04:20:11;;;;;;;14.20;9.60;;;;;;;26.33;39.43;99875.00;5031016;28;20474;-52
2022/07/09 04:22:37;;;;;;;14.82;9.55;;;;;;;27.19;38.25;99883.28;5030531;28;20067;-50
2022/07/09 04:25:02;;;;;;;14.18;9.07;;;;;;;27.82;36.42;99895.91;5030947;28;20029;-53
2022/07/09 04:27:29;;;;;;;16.25;8.95;;;;;;;28.83;34.81;99896.91;5030763;28;20034;-51
2022/07/09 04:29:54;;;;;;;11.20;8.38;;;;;;;30.64;31.99;99886.25;5030920;28;20026;-49
2022/07/09 04:32:20;;;;;;;15.10;8.55;;;;;;;32.40;28.58;99890.72;5030902;28;20401;-50
2022/07/09 04:34:46;;;;;;;10.02;7.10;;;;;;;33.83;26.04;99889.78;5030765;28;20034;-52
2022/07/09 04:37:11;;;;;;;10.50;7.10;;;;;;;34.86;24.57;99888.75;5030545;28;20091;-50
2022/07/09 04:39:37;;;;;;;12.73;7.55;;;;;;;35.76;23.22;99894.34;5030723;28;20033;-49
2022/07/09 04:42:03;;;;;;;7.93;6.05;;;;;;;36.69;22.07;99889.81;5030674;28;20458;-53
2022/07/09 04:44:28;;;;;;;6.50;5.25;;;;;;;37.02;20.96;99890.81;5030953;28;20095;-51
2022/07/09 04:46:54;;;;;;;9.13;6.05;;;;;;;37.47;20.84;99895.19;5030703;28;20491;-58
2022/07/09 04:49:20;;;;;;;9.45;6.35;;;;;;;37.76;20.06;99908.16;5031057;28;20521;-49
2022/07/09 04:51:46;;;;;;;9.05;6.05;;;;;;;38.15;19.47;99900.53;5030873;28;20036;-54
2022/07/09 04:54:11;;;;;;;7.75;5.38;;;;;;;38.65;18.86;99891.47;5030743;28;20026;-52
2022/07/09 04:56:37;;;;;;;8.45;4.68;;;;;;;39.24;18.16;99887.16;5030283;28;20049;-52
2022/07/09 04:59:02;;;;;;;6.45;4.20;;;;;;;39.53;17.39;99888.72;5031456;28;20034;-54
2022/07/09 05:01:29;;;;;;;5.60;4.00;;;;;;;38.97;17.85;99895.28;5033832;28;20127;-51
2022/07/09 05:03:55;;;;;;;7.25;4.40;;;;;;;38.88;18.07;99881.16;5034471;28;20041;-59
2022/07/09 05:06:20;;;;;;;6.20;4.20;;;;;;;39.69;17.40;99876.00;5034421;28;20124;-55
2022/07/09 05:08:47;;;;;;;6.97;4.28;;;;;;;40.49;16.67;99877.25;5033602;28;20102;-54
2022/07/09 05:11:14;;;;;;;5.32;4.40;;;;;;;40.53;16.58;99880.25;5033471;28;20034;-54
2022/07/09 05:13:42;;;;;;;8.15;4.00;;;;;;;41.12;15.85;99867.81;5033659;28;20069;-49
2022/07/09 05:16:08;;;;;;;4.70;3.78;;;;;;;41.61;15.36;99876.94;5033348;28;20030;-52
2022/07/09 05:18:35;;;;;;;5.30;3.60;;;;;;;41.50;15.47;99881.22;5034192;28;20525;-59
2022/07/09 05:21:00;;;;;;;7.15;3.40;;;;;;;41.50;15.20;99878.41;5034293;28;20047;-52
2022/07/09 05:23:26;;;;;;;3.03;2.38;;;;;;;41.42;15.13;99873.63;5033926;28;20438;-58
2022/07/09 05:25:53;;;;;;;3.67;3.00;;;;;;;39.80;16.19;99865.34;5033686;28;20036;-47
2022/07/09 05:28:18;;;;;;;3.95;2.35;;;;;;;38.60;17.17;99872.00;5034270;28;20060;-48
2022/07/09 05:30:44;;;;;;;3.40;2.42;;;;;;;39.22;16.68;99861.44;5033880;28;20060;-48
2022/07/09 05:33:10;;;;;;;4.15;2.67;;;;;;;40.05;16.33;99869.44;5033204;28;20112;-47
2022/07/09 05:35:36;;;;;;;3.17;2.20;;;;;;;38.62;16.90;99880.91;5033424;28;20087;-61
2022/07/09 05:38:02;;;;;;;2.20;2.00;;;;;;;37.58;18.15;99877.16;5033576;28;20049;-56
2022/07/09 05:40:27;;;;;;;2.67;2.00;;;;;;;37.06;18.77;99869.53;5033655;28;20029;-58
2022/07/09 05:42:53;;;;;;;2.42;2.20;;;;;;;37.04;18.93;99871.00;5033467;28;20029;-59
2022/07/09 05:45:18;;;;;;;3.13;2.33;;;;;;;36.84;19.09;99863.69;5033004;28;20056;-60
2022/07/09 05:47:44;;;;;;;2.60;2.00;;;;;;;36.06;19.87;99870.16;5033108;28;20061;-62
2022/07/09 05:50:10;;;;;;;2.60;2.13;;;;;;;35.25;20.79;99864.91;5033112;28;20477;-61
2022/07/09 05:52:35;;;;;;;6.60;2.00;;;;;;;35.28;20.84;99862.41;5031528;28;20048;-61
2022/07/09 05:55:03;;;;;;;5.63;2.33;;;;;;;35.59;20.84;99861.38;5032826;28;20034;-60
2022/07/09 05:57:29;;;;;;;2.25;2.05;;;;;;;35.17;20.88;99869.13;5033014;28;20034;-60
2022/07/09 05:59:55;;;;;;;2.10;1.90;;;;;;;34.76;21.35;99867.38;5033216;28;20425;-59
2022/07/09 06:02:21;;;;;;;3.60;1.92;;;;;;;35.10;21.26;99860.28;5032385;28;20073;-59
2022/07/09 06:04:47;;;;;;;3.47;2.08;;;;;;;35.63;20.64;99851.31;5031789;28;20432;-61
2022/07/09 06:07:12;;;;;;;3.25;1.67;;;;;;;35.67;20.67;99862.69;5032484;28;20041;-60
2022/07/09 06:09:39;;;;;;;2.85;1.85;;;;;;;34.85;21.47;99860.13;5032141;28;20030;-60
2022/07/09 06:12:04;;;;;;;1.92;1.58;;;;;;;34.14;22.24;99868.41;5031602;28;20033;-60
2022/07/09 06:14:30;;;;;;;2.25;1.70;;;;;;;33.88;22.67;99851.75;5032196;28;20116;-60
2022/07/09 06:16:56;;;;;;;3.95;2.00;;;;;;;35.35;21.18;99837.84;5032280;28;20041;-60
2022/07/09 06:19:22;;;;;;;1.77;1.60;;;;;;;37.71;18.43;99839.22;5032439;28;20504;-60
2022/07/09 06:21:48;;;;;;;2.20;2.00;;;;;;;37.90;18.13;99838.34;5032368;28;20351;-60
2022/07/09 06:24:13;;;;;;;4.10;2.15;;;;;;;37.37;18.86;99815.22;5032932;28;20084;-60
2022/07/09 06:26:39;;;;;;;3.38;1.60;;;;;;;38.63;17.21;99830.22;5031408;28;20335;-60
2022/07/09 06:29:04;;;;;;;2.08;1.80;;;;;;;40.86;15.26;99818.09;5032674;28;20095;-60
2022/07/09 06:31:30;;;;;;;3.47;1.77;;;;;;;41.26;15.12;99839.59;5033178;28;20087;-60
2022/07/09 06:33:58;;;;;;;2.08;1.92;;;;;;;40.23;15.70;99838.69;5032921;28;20359;-60
2022/07/09 06:36:23;;;;;;;1.90;1.80;;;;;;;38.99;17.05;99839.00;5032263;28;20033;-59
2022/07/09 06:41:33;;;;;;;5.13;1.60;;;;;;;36.50;19.21;99837.59;5032081;28;20033;-60
2022/07/09 06:43:59;;;;;;;2.30;1.88;;;;;;;35.24;21.06;99824.31;5032843;28;20048;-59
2022/07/09 06:46:24;;;;;;;3.53;1.60;;;;;;;34.15;22.04;99836.72;5031239;28;20042;-58
2022/07/09 06:48:49;;;;;;;3.10;1.90;;;;;;;33.26;23.21;99851.69;5032553;28;20690;-59
2022/07/09 06:51:15;;;;;;;3.78;1.80;;;;;;;32.53;24.62;99839.53;5031913;28;20350;-58
2022/07/09 06:53:40;;;;;;;3.13;1.83;;;;;;;32.01;24.93;99824.53;5030329;28;20041;-60
2022/07/09 06:56:06;;;;;;;2.47;1.90;;;;;;;31.81;25.60;99839.91;5030976;28;20033;-60
2022/07/09 06:58:32;;;;;;;2.42;1.73;;;;;;;31.63;25.78;99830.91;5031478;28;20390;-60
2022/07/09 07:00:57;;;;;;;1.52;1.42;;;;;;;31.86;25.65;99833.56;5031403;28;20044;-60
2022/07/09 07:03:22;;;;;;;2.00;1.90;;;;;;;32.20;24.84;99828.53;5031769;28;20389;-59
2022/07/09 07:05:48;;;;;;;4.15;1.83;;;;;;;32.01;25.08;99796.84;5032547;28;20091;-61
2022/07/09 07:08:13;;;;;;;2.17;1.67;;;;;;;32.08;25.58;99825.97;5030255;28;20311;-59
2022/07/09 07:10:39;;;;;;;2.13;1.92;;;;;;;32.55;24.87;99800.44;5029846;28;20029;-57
2022/07/09 07:13:04;;;;;;;2.65;2.00;;;;;;;34.33;23.04;99801.94;5013530;28;20037;-60
2022/07/09 07:15:30;;;;;;;3.33;1.80;;;;;;;38.00;18.73;99806.63;5032151;28;20048;-60
2022/07/09 07:17:55;;;;;;;3.40;2.30;;;;;;;39.46;17.12;99807.94;5030936;28;20033;-59
2022/07/09 07:20:24;;;;;;;2.03;1.77;;;;;;;38.99;17.65;99814.63;5030963;28;20544;-61
2022/07/09 07:22:50;;;;;;;3.83;1.90;;;;;;;38.24;18.26;99803.63;5030268;28;20044;-60
2022/07/09 07:25:16;;;;;;;5.30;1.83;;;;;;;37.66;18.67;99824.56;5031520;28;20033;-61
2022/07/09 07:27:41;;;;;;;4.97;2.13;;;;;;;36.77;19.85;99795.16;5031273;28;20053;-60
2022/07/09 07:30:07;;;;;;;1.65;1.55;;;;;;;35.80;20.68;99827.75;5031108;28;20045;-63
2022/07/09 07:32:33;;;;;;;2.33;1.73;;;;;;;34.77;21.71;99822.63;5030625;28;20478;-60
2022/07/09 07:34:59;;;;;;;3.13;1.70;;;;;;;33.82;22.48;99833.44;5031984;28;20037;-60
2022/07/09 07:37:24;;;;;;;1.70;1.60;;;;;;;33.16;23.76;99823.94;5031491;28;20049;-60
2022/07/09 07:39:49;;;;;;;2.20;1.65;;;;;;;32.57;23.95;99831.53;5031258;28;20064;-60
2022/07/09 07:42:15;;;;;;;2.22;1.63;;;;;;;31.89;25.09;99833.88;5031113;28;20389;-59
2022/07/09 07:44:41;;;;;;;3.35;1.70;;;;;;;31.11;26.18;99845.31;5029811;28;20427;-61
2022/07/09 07:47:07;;;;;;;1.98;1.55;;;;;;;30.31;27.16;99822.53;5031028;28;20032;-59
2022/07/09 07:49:32;;;;;;;3.97;2.00;;;;;;;29.78;28.23;99835.78;5031382;28;20505;-58
2022/07/09 07:51:58;;;;;;;1.95;1.60;;;;;;;29.24;28.89;99831.56;5030746;28;20370;-60
2022/07/09 07:54:23;;;;;;;4.00;1.75;;;;;;;28.79;30.83;99839.53;5031579;28;20213;-62
2022/07/09 07:56:50;;;;;;;4.13;2.00;;;;;;;28.21;32.54;99811.88;5030856;28;20029;-60
2022/07/09 07:59:16;;;;;;;4.65;2.20;;;;;;;28.03;34.53;99845.81;5046249;28;20030;-60
2022/07/09 08:01:41;;;;;;;2.75;1.90;;;;;;;27.72;36.26;99833.22;5030483;28;20032;-61
2022/07/09 08:04:07;;;;;;;2.40;1.90;;;;;;;27.56;36.26;99843.88;5030685;28;20029;-60
2022/07/09 08:06:32;;;;;;;3.80;1.70;;;;;;;27.39;36.58;99845.59;5031409;28;20367;-59
2022/07/09 08:08:58;;;;;;;2.28;1.92;;;;;;;27.22;35.55;99854.50;5030904;28;20045;-59
2022/07/09 08:11:23;;;;;;;4.78;2.10;;;;;;;26.96;34.94;99833.75;5029355;28;20029;-57
2022/07/09 08:13:49;;;;;;;2.40;2.10;;;;;;;26.98;36.42;99856.31;5030937;28;20045;-62
2022/07/09 08:16:14;;;;;;;4.05;2.20;;;;;;;26.95;37.78;99854.88;5030511;28;20029;-59
2022/07/09 08:18:40;;;;;;;3.90;2.80;;;;;;;26.91;37.40;99856.41;5030270;28;20033;-59
2022/07/09 08:21:05;;;;;;;5.18;2.60;;;;;;;26.95;38.47;99863.09;5030932;28;20044;-57
2022/07/09 08:23:31;;;;;;;3.17;2.88;;;;;;;26.92;39.04;99872.66;5030461;28;20362;-57
2022/07/09 08:25:56;;;;;;;4.03;3.03;;;;;;;26.87;38.66;99866.19;5030361;28;20061;-58
2022/07/09 08:28:22;;;;;;;4.65;2.67;;;;;;;26.85;39.36;99879.31;5030316;28;20120;-57
2022/07/09 08:30:47;;;;;;;3.72;2.70;;;;;;;26.78;39.91;99882.09;5030477;28;20099;-58
2022/07/09 08:33:13;;;;;;;3.17;2.65;;;;;;;26.65;39.95;99866.63;5029261;28;20072;-57
2022/07/09 08:35:38;;;;;;;5.50;3.13;;;;;;;26.36;41.01;99858.09;5030086;28;20050;-57
2022/07/09 08:38:04;;;;;;;6.47;3.45;;;;;;;26.09;41.85;99844.59;5030593;28;20033;-60
2022/07/09 08:40:30;;;;;;;3.58;2.88;;;;;;;26.16;41.83;99875.59;5030069;28;20525;-59
2022/07/09 08:43:00;;;;;;;5.78;3.00;;;;;;;26.12;41.06;99873.47;5030571;28;20033;-58
2022/07/09 08:45:28;;;;;;;4.57;2.92;;;;;;;25.97;41.36;99851.88;5030624;28;20040;-59
2022/07/09 08:47:54;;;;;;;3.63;2.90;;;;;;;25.98;41.65;99859.91;5030358;28;20026;-58
2022/07/09 08:50:21;;;;;;;7.35;3.22;;;;;;;25.93;40.54;99862.50;5030215;28;20436;-59
2022/07/09 08:52:49;;;;;;;7.60;3.03;;;;;;;25.76;40.69;99841.09;5030488;28;20033;-62
2022/07/09 08:55:16;;;;;;;6.45;3.10;;;;;;;25.69;41.24;99844.97;5030224;28;20053;-58
2022/07/09 08:57:41;;;;;;;6.05;3.60;;;;;;;25.80;39.93;99855.19;5030121;28;20492;-57
2022/07/09 09:00:07;;;;;;;6.40;3.22;;;;;;;25.87;40.77;99866.09;5030534;28;20113;-58
2022/07/09 09:02:39;;;;;;;5.95;2.95;;;;;;;26.03;40.06;99857.31;5030479;28;20034;-59
2022/07/09 09:05:15;;;;;;;5.75;3.50;;;;;;;26.22;39.30;99871.09;5030524;28;20029;-57
2022/07/09 09:07:41;;;;;;;5.00;3.50;;;;;;;26.21;39.56;99853.78;5028907;28;20033;-59
2022/07/09 09:10:07;;;;;;;5.50;3.58;;;;;;;26.37;39.64;99849.59;5031049;28;20068;-59
2022/07/09 09:12:32;;;;;;;6.53;4.28;;;;;;;26.57;39.83;99847.72;5030275;28;20053;-58
2022/07/09 09:14:59;;;;;;;4.45;4.03;;;;;;;26.73;39.57;99855.31;5030032;28;20535;-60
2022/07/09 09:17:25;;;;;;;9.10;4.70;;;;;;;26.83;40.20;99848.47;5028516;28;20064;-59
2022/07/09 09:19:50;;;;;;;9.70;4.60;;;;;;;26.86;40.03;99846.09;5029531;28;20073;-59
2022/07/09 09:22:17;;;;;;;6.95;4.72;;;;;;;26.85;40.30;99844.41;5030443;28;20551;-59
2022/07/09 09:24:48;;;;;;;5.18;4.35;;;;;;;26.86;40.91;99848.03;5029610;28;20384;-58
2022/07/09 09:27:14;;;;;;;6.90;4.82;;;;;;;26.70;40.87;99811.84;5029987;28;20493;-59
2022/07/09 09:29:49;;;;;;;6.20;4.47;;;;;;;26.96;40.90;99845.53;5030710;28;20026;-59
2022/07/09 09:32:19;;;;;;;8.88;4.90;;;;;;;26.94;40.48;99845.78;5030077;28;20101;-58
2022/07/09 09:34:49;;;;;;;9.13;5.00;;;;;;;26.79;40.91;99817.84;5045211;28;20048;-60
2022/07/09 09:37:25;;;;;;;5.95;4.50;;;;;;;26.80;41.27;99831.38;5029266;28;20022;-60
2022/07/09 09:39:51;;;;;;;6.95;4.32;;;;;;;26.49;42.03;99804.94;5030170;28;20029;-59
2022/07/09 09:42:16;;;;;;;8.93;4.53;;;;;;;26.64;42.10;99819.09;5030252;28;20037;-60
2022/07/09 09:44:44;;;;;;;6.18;4.43;;;;;;;26.69;41.87;99821.16;5028569;28;20033;-60
2022/07/09 09:47:10;;;;;;;6.70;5.03;;;;;;;26.70;41.99;99813.75;5033780;28;20025;-59
2022/07/09 09:49:37;;;;;;;6.55;4.63;;;;;;;26.50;42.12;99823.91;5032848;28;20462;-59
2022/07/09 09:52:04;;;;;;;8.20;4.88;;;;;;;26.34;43.12;99808.06;5033040;28;20036;-59
2022/07/09 09:54:34;;;;;;;7.15;4.90;;;;;;;26.12;43.45;99805.75;5033185;28;20112;-60
2022/07/09 09:57:00;;;;;;;7.53;5.07;;;;;;;25.78;43.03;99797.00;5013265;28;20190;-61
2022/07/09 09:59:26;;;;;;;6.63;4.80;;;;;;;25.68;44.02;99789.28;5032648;28;20040;-59
2022/07/09 10:01:52;;;;;;;6.50;5.07;;;;;;;25.60;44.34;99792.31;5032707;28;20362;-60
2022/07/09 10:04:18;;;;;;;7.00;4.95;;;;;;;25.42;45.09;99762.91;5033033;28;20029;-58
2022/07/09 10:06:44;;;;;;;6.03;4.57;;;;;;;25.56;44.33;99786.44;5032855;28;20085;-57
2022/07/09 10:09:14;;;;;;;6.93;5.47;;;;;;;25.77;44.91;99782.47;5033066;28;20030;-60
2022/07/09 10:11:44;;;;;;;7.10;4.95;;;;;;;25.90;43.59;99788.84;5033112;28;20030;-59
2022/07/09 10:14:28;;;;;;;5.55;4.88;;;;;;;26.32;43.08;99785.50;5033357;28;20033;-60
2022/07/09 10:16:54;;;;;;;8.13;5.55;;;;;;;26.41;43.73;99781.38;5032209;28;20044;-58
2022/07/09 10:19:28;;;;;;;6.00;5.15;;;;;;;26.70;44.17;99776.16;5032617;28;20537;-58
2022/07/09 10:21:55;;;;;;;9.15;5.63;;;;;;;26.59;42.38;99755.81;5032960;28;20099;-57
2022/07/09 10:24:37;;;;;;;10.60;5.47;;;;;;;26.96;43.23;99771.38;5032537;28;20374;-61
2022/07/09 10:27:07;;;;;;;6.32;5.10;;;;;;;26.94;41.96;99774.38;5032622;28;20608;-61
2022/07/09 10:29:33;;;;;;;6.93;4.93;;;;;;;26.65;41.90;99757.63;5033026;28;20397;-60
2022/07/09 10:32:01;;;;;;;12.35;4.72;;;;;;;26.70;42.01;99773.41;5032424;28;20084;-59
2022/07/09 10:34:32;;;;;;;8.27;4.70;;;;;;;26.77;41.49;99763.19;5032692;28;20096;-59
2022/07/09 10:37:02;;;;;;;7.55;5.10;;;;;;;26.76;41.29;99761.47;5047472;28;20401;-60
2022/07/09 10:39:29;;;;;;;12.43;6.05;;;;;;;26.97;40.32;99756.56;5048032;28;20033;-59
2022/07/09 10:42:05;;;;;;;8.63;5.47;;;;;;;27.36;40.21;99758.91;5032528;28;20041;-59
2022/07/09 10:44:35;;;;;;;11.32;5.47;;;;;;;27.71;39.61;99757.31;5032168;28;20037;-59
2022/07/09 10:47:02;;;;;;;8.20;5.45;;;;;;;27.90;38.50;99738.78;5030876;28;20440;-60
2022/07/09 10:49:27;;;;;;;8.18;5.32;;;;;;;28.03;38.93;99740.44;5032206;28;20124;-61
2022/07/09 10:51:59;;;;;;;9.68;5.85;;;;;;;28.15;39.15;99738.50;5031942;28;20108;-60
2022/07/09 10:54:25;;;;;;;8.45;5.82;;;;;;;28.12;38.95;99738.97;5032082;28;20036;-59
2022/07/09 10:56:53;;;;;;;16.27;6.35;;;;;;;28.20;38.73;99733.09;5031311;28;20038;-59
2022/07/09 10:59:19;;;;;;;9.18;7.18;;;;;;;28.29;37.65;99739.06;5032213;28;20056;-61
2022/07/09 11:01:45;;;;;;;8.55;6.97;;;;;;;28.15;36.31;99733.00;5032223;28;20071;-59
2022/07/09 11:04:14;;;;;;;8.63;6.40;;;;;;;27.65;37.06;99713.19;5032349;28;20041;-61
2022/07/09 11:06:46;;;;;;;7.30;5.47;;;;;;;27.77;36.73;99704.91;5032127;28;20112;-60
2022/07/09 11:09:15;;;;;;;7.88;5.90;;;;;;;27.67;36.93;99706.59;5031547;28;20029;-60
2022/07/09 11:11:45;;;;;;;6.72;5.03;;;;;;;27.51;35.65;99698.03;5032120;28;20034;-59
2022/07/09 11:14:11;;;;;;;3.88;3.08;;;;;;;27.14;33.19;99696.31;5031811;28;20041;-58
2022/07/09 11:16:37;;;;;;;2.83;2.63;;;;;;;26.91;33.05;99691.59;5031915;28;20336;-60
2022/07/09 11:19:16;;;;;;;5.28;2.72;;;;;;;26.75;33.92;99688.41;5031704;28;20132;-60
2022/07/09 11:21:42;;;;;;;2.85;2.38;;;;;;;26.39;33.08;99679.22;5032144;28;20021;-59
2022/07/09 11:24:21;;;;;;;3.28;2.38;;;;;;;26.31;33.85;99671.31;5031664;28;20040;-60
2022/07/09 11:26:47;;;;;;;3.45;2.40;;;;;;;26.00;33.67;99671.25;5030333;28;20037;-59
2022/07/09 11:29:12;;;;;;;3.75;2.20;;;;;;;25.84;34.62;99671.84;5031481;28;20037;-61